Lawrence Municipal Airport

About
Name: Lawrence Municipal Airport
Identifier:  LWM/KLWM
Local Time:  22. Sep 07:56 EDT
Location
Statistics
Flights per Day:
0 flights
Distance: 58km (36mi)
Flights delayed:
-100% (0 flights per day delayed)
Delay Average: 332 minutes
Current Weather
 14 C (Humidity: 93%)
  4kt (7km/h / 4mph) from 180°
  16km (10 mi.)
 
 METAR KLWM 221054Z 18004KT 10SM CLR 14/13 A3016 RMK AO2 SLP212 T01440133

Current Delays

Departures
N/A
Arrivals
N/A

Destinations

Top Destinations
Airport Flights
per week
Seats
per week
  Bedford (BED) 0 - 0 0
  Reading (RDG) 0 - 0 0
  Norwood (OWD) 0 - 0 0
  Martha's Vineyard (MVY) 0 - 0 0
  Morristown (MMU) 0 - 0 0

Airlines & Planes

Top Airlines
Airline Flights
per Day
Seats
per Day
  Centennial Airlines 0 -
Quest Diagnostics 0 -
Top Plane Types
Model Flights Seats
Pilatus PC-12 0.2/day - 0